Aviation Digital Data Service (ADDS)

Output produced by METARs form (1136 UTC 21 January 2020)
found at http://aviationweather.gov/metar/data/
 
KBOS 211132Z 2112/2218 33010KT P6SM SKC 
     FM220000 32005KT P6SM BKN120 
     FM220300 29006KT P6SM SCT100 
     FM221700 25004KT P6SM SKC
       
KLGA 211122Z 2112/2218 34008KT P6SM SKC 
     FM211700 33009KT P6SM SCT200 
     FM220200 35005KT P6SM SCT250
       
KEWR 211122Z 2112/2218 34007KT P6SM SKC 
     FM211700 32008KT P6SM SCT200 
     FM220200 34005KT P6SM SCT250 
     FM221200 VRB03KT P6SM SKC
       
KJFK 211122Z 2112/2218 34008KT P6SM SKC 
     FM211700 32009KT P6SM SCT200 
     FM220200 34005KT P6SM SCT250
       
KPHL 211120Z 2112/2218 33008KT P6SM SKC 
     FM212300 32006KT P6SM FEW250 
     FM220500 35004KT P6SM FEW250 
     FM221200 VRB03KT P6SM SKC
       
KIAD 211131Z 2112/2218 33008KT P6SM SKC 
     FM220300 33004KT P6SM FEW120
       
KBWI 211131Z 2112/2218 32006KT P6SM SKC 
     FM220200 33004KT P6SM SCT120
       
KDCA 211131Z 2112/2218 34010KT P6SM SKC 
     FM220600 33005KT P6SM FEW120
       
KCLT 211123Z 2112/2218 02009KT P6SM SCT150 
     FM211500 03010G18KT P6SM FEW250 
     FM211800 01008KT P6SM SKC 
     FM220000 02005KT P6SM SKC
       
KATL 211131Z 2112/2218 34007KT P6SM BKN050 OVC120 
     FM211700 35007KT P6SM SCT100 
     FM212000 35008KT P6SM SKC 
     FM220900 03004KT P6SM FEW250 
     FM221400 06007KT P6SM FEW250
       
KMCO 211124Z 2112/2218 34011KT P6SM FEW030 
     FM211300 34013G19KT P6SM FEW030 
     FM211800 35016G24KT P6SM FEW040 
     FM220000 34012KT P6SM SKC 
     FM221200 34014KT P6SM SCT025
       
KTPA 211136Z 2112/2218 36010KT P6SM SKC 
     FM211500 34013G21KT P6SM SKC 
     FM212300 35011KT P6SM SKC 
     FM220400 01011G18KT P6SM SKC 
     FM221500 36010KT P6SM SKC
       
KFLL 211131Z 2112/2218 34010KT P6SM SCT250 
     FM211400 33012G20KT P6SM FEW050 SCT250 
     FM220200 35014KT P6SM FEW050 SCT250
       
KMIA 211131Z 2112/2218 33010KT P6SM SCT250 
     FM211400 32012G20KT P6SM FEW050 SCT250 
     FM220200 35014KT P6SM FEW050 SCT250
       
KDTW 210830Z 2109/2212 29003KT P6SM -SHSN OVC025 
     FM211100 28003KT P6SM OVC025 
     FM211300 26008KT P6SM SCT025 
     FM220000 23006KT P6SM SCT250
       
KMSP 210846Z 2109/2212 19009KT P6SM SKC 
     FM211200 18009KT P6SM FEW250 WS015/22045KT 
     FM211900 18015G24KT P6SM SCT250 
     FM220300 18015KT P6SM BKN250 WS020/23055KT 
     FM220800 19012KT 5SM -PLSN BR OVC015 WS020/23050KT
       
KORD 211120Z 2112/2218 25005KT P6SM SKC 
     FM211500 23009KT P6SM FEW250 
     FM212300 20011KT P6SM SCT250 
     FM221200 20012G18KT P6SM BKN200
       
KMDW 211120Z 2112/2218 25005KT P6SM SKC 
     FM211500 23009KT P6SM FEW250 
     FM212300 20011KT P6SM SCT250 
     FM221200 20012G18KT P6SM BKN200
       
KMEM 211120Z 2112/2218 04010KT P6SM BKN025 BKN250 
     FM211400 04008KT P6SM SKC 
     FM220200 12003KT P6SM BKN250
       
KDFW 211128Z 2112/2218 14006KT P6SM SCT300 
     FM220000 13010KT P6SM OVC100 
     FM220600 14010KT 4SM -RA OVC035 
     FM220900 14010KT 4SM -RA OVC015
       
KIAH 211126Z 2112/2218 09006KT P6SM SCT250 
     FM211600 11009KT P6SM BKN250 
     FM220900 08009KT P6SM VCSH SCT025 OVC100 
     FM221100 09012KT P6SM -RA SCT012 OVC040 
     FM221500 11013KT 6SM -RA BR SCT008 OVC012
       
KDEN 211129Z 2112/2218 VRB04KT P6SM BKN100 OVC180 
     FM212000 04009KT P6SM BKN090 OVC150 
     FM220100 13010KT P6SM SCT110 BKN150 
     FM220300 20008KT P6SM FEW120 SCT200
       
KSLC 210856Z 2109/2212 14004KT P6SM SCT070 BKN120 
     FM211200 15006KT 6SM BR SCT030 BKN050 
     FM212100 29006KT 6SM HZ SCT030 BKN050 
     FM220300 16005KT 5SM BR VCSH BKN035 
     FM220500 15005KT 3SM -SHSN BKN035
       
KSEA 211131Z 2112/2218 14009KT P6SM -RA SCT020 OVC050 
     FM211900 19014G22KT 6SM -SHRA BR OVC020 
     FM212300 19015G25KT P6SM -SHRA SCT020 OVC025 
     FM220500 18012KT P6SM SCT020 OVC030
       
KSFO 211122Z 2112/2218 14008KT P6SM SCT030 OVC100 
     TEMPO 2112/2114 BKN030 
     FM211400 16011KT P6SM VCSH BKN030 OVC050 
     FM211700 17012KT P6SM -SHRA BKN025 OVC050 
     FM220500 20005KT P6SM VCSH BKN030 BKN050 OVC100 
     FM221100 VRB03KT 5SM BR BKN030 BKN050 OVC100 
     FM221500 VRB05KT P6SM SCT030 BKN050
       
KLAX 210844Z 2109/2212 26006KT P6SM -SHRA VCSH BKN025 OVC050 
     FM211300 VRB03KT P6SM OVC015 
     FM211800 26010KT P6SM BKN025 BKN150 
     FM220500 VRB03KT P6SM OVC025
       
KSAN 211124Z 2112/2218 18006KT P6SM SCT020 BKN035 
     TEMPO 2112/2116 BKN020 
     FM211900 27008KT P6SM SCT025 SCT035 
     FM220200 VRB04KT P6SM SCT015 SCT025 
     FM220500 VRB03KT P6SM BKN015 
     FM221700 VRB04KT P6SM SCT020
       
KLAS 211120Z 2112/2218 22005KT P6SM VCSH BKN100 OVC120 
     FM211500 VRB06KT P6SM SCT080 BKN200 
     FM212100 08006KT P6SM SCT080 BKN200 
     FM220300 22005KT P6SM FEW080 SCT200
       
KPHX 211120Z 2112/2218 28008KT P6SM -RA SCT035 BKN050 OVC060 
     FM211400 12006KT P6SM VCSH SCT020 BKN035 OVC050 
     FM212000 VRB04KT P6SM SCT035 BKN050 
     FM220400 10005KT P6SM FEW035 BKN060
       
KSDF 211122Z 2112/2218 36005KT P6SM -SN BKN035 
     FM211600 VRB04KT P6SM SCT035
       
KIND 211120Z 2112/2218 35003KT 6SM -SN OVC030 
     FM211400 35003KT P6SM SCT045 
     FM220500 17005KT P6SM FEW250
       
KCVG 210920Z 2109/2212 36007KT P6SM -SN BKN025 
     TEMPO 2109/2111 SCT025 
     FM211100 01004KT P6SM SCT030 
     FM220000 VRB02KT P6SM FEW250